sensor_id;sensor_type;location;lat;lon;timestamp;pressure;altitude;pressure_sealevel;temperature;humidity
26083;BME280;13848;49.018;12.078;2023-02-11T00:01:21;99611.31;;;-1.21;70.77
26083;BME280;13848;49.018;12.078;2023-02-11T00:03:49;99613.19;;;-1.23;71.33
26083;BME280;13848;49.018;12.078;2023-02-11T00:06:16;99609.59;;;-1.22;71.26
26083;BME280;13848;49.018;12.078;2023-02-11T00:08:42;99607.34;;;-1.28;70.59
26083;BME280;13848;49.018;12.078;2023-02-11T00:11:11;99613.19;;;-1.23;70.99
26083;BME280;13848;49.018;12.078;2023-02-11T00:13:37;99604.50;;;-1.25;71.07
26083;BME280;13848;49.018;12.078;2023-02-11T00:16:05;99606.41;;;-1.27;71.42
26083;BME280;13848;49.018;12.078;2023-02-11T00:18:31;99608.97;;;-1.26;70.62
26083;BME280;13848;49.018;12.078;2023-02-11T00:20:57;99600.66;;;-1.34;70.97
26083;BME280;13848;49.018;12.078;2023-02-11T00:23:24;99602.13;;;-1.43;71.72
26083;BME280;13848;49.018;12.078;2023-02-11T00:25:50;99601.75;;;-1.51;72.67
26083;BME280;13848;49.018;12.078;2023-02-11T00:28:16;99592.66;;;-1.47;71.52
26083;BME280;13848;49.018;12.078;2023-02-11T00:30:42;99599.47;;;-1.43;71.31
26083;BME280;13848;49.018;12.078;2023-02-11T00:33:08;99596.72;;;-1.41;70.87
26083;BME280;13848;49.018;12.078;2023-02-11T00:35:35;99597.78;;;-1.44;71.14
26083;BME280;13848;49.018;12.078;2023-02-11T00:38:01;99600.50;;;-1.45;70.91
26083;BME280;13848;49.018;12.078;2023-02-11T00:40:29;99596.75;;;-1.55;71.47
26083;BME280;13848;49.018;12.078;2023-02-11T00:42:55;99591.47;;;-1.55;70.75
26083;BME280;13848;49.018;12.078;2023-02-11T00:45:21;99602.06;;;-1.55;71.21
26083;BME280;13848;49.018;12.078;2023-02-11T00:47:47;99586.81;;;-1.52;70.68
26083;BME280;13848;49.018;12.078;2023-02-11T00:50:13;99586.09;;;-1.54;70.93
26083;BME280;13848;49.018;12.078;2023-02-11T00:52:38;99592.09;;;-1.52;70.57
26083;BME280;13848;49.018;12.078;2023-02-11T00:55:06;99590.41;;;-1.53;70.79
26083;BME280;13848;49.018;12.078;2023-02-11T00:57:33;99598.84;;;-1.61;70.62
26083;BME280;13848;49.018;12.078;2023-02-11T00:59:59;99599.69;;;-1.60;71.03
26083;BME280;13848;49.018;12.078;2023-02-11T01:02:25;99594.41;;;-1.60;70.47
26083;BME280;13848;49.018;12.078;2023-02-11T01:04:51;99588.38;;;-1.62;70.58
26083;BME280;13848;49.018;12.078;2023-02-11T01:07:17;99590.09;;;-1.75;70.71
26083;BME280;13848;49.018;12.078;2023-02-11T01:09:43;99592.44;;;-1.71;70.81
26083;BME280;13848;49.018;12.078;2023-02-11T01:12:09;99589.84;;;-1.44;71.61
26083;BME280;13848;49.018;12.078;2023-02-11T01:14:37;99584.34;;;-1.41;70.37
26083;BME280;13848;49.018;12.078;2023-02-11T01:17:03;99587.88;;;-1.54;69.67
26083;BME280;13848;49.018;12.078;2023-02-11T01:19:29;99591.59;;;-1.71;70.33
26083;BME280;13848;49.018;12.078;2023-02-11T01:21:55;99586.88;;;-1.80;71.08
26083;BME280;13848;49.018;12.078;2023-02-11T01:24:21;99592.56;;;-1.87;71.23
26083;BME280;13848;49.018;12.078;2023-02-11T01:26:47;99584.44;;;-1.83;71.60
26083;BME280;13848;49.018;12.078;2023-02-11T01:29:13;99574.63;;;-1.81;71.75
26083;BME280;13848;49.018;12.078;2023-02-11T01:31:40;99562.56;;;-1.85;71.69
26083;BME280;13848;49.018;12.078;2023-02-11T01:34:06;99559.91;;;-2.00;72.70
26083;BME280;13848;49.018;12.078;2023-02-11T01:36:32;99555.94;;;-1.93;72.46
26083;BME280;13848;49.018;12.078;2023-02-11T01:38:58;99564.63;;;-1.91;73.12
26083;BME280;13848;49.018;12.078;2023-02-11T01:41:24;99573.13;;;-1.85;73.00
26083;BME280;13848;49.018;12.078;2023-02-11T01:43:50;99567.91;;;-1.87;72.34
26083;BME280;13848;49.018;12.078;2023-02-11T01:46:23;99551.31;;;-1.89;72.72
26083;BME280;13848;49.018;12.078;2023-02-11T01:48:56;99540.28;;;-1.96;72.97
26083;BME280;13848;49.018;12.078;2023-02-11T01:51:27;99543.28;;;-1.88;73.34
26083;BME280;13848;49.018;12.078;2023-02-11T01:53:56;99529.97;;;-1.86;73.27
26083;BME280;13848;49.018;12.078;2023-02-11T01:56:24;99532.72;;;-1.88;72.89
26083;BME280;13848;49.018;12.078;2023-02-11T01:58:52;99518.09;;;-1.93;73.17
26083;BME280;13848;49.018;12.078;2023-02-11T02:01:22;99526.69;;;-1.90;73.23
26083;BME280;13848;49.018;12.078;2023-02-11T02:03:51;99513.25;;;-1.87;73.20
26083;BME280;13848;49.018;12.078;2023-02-11T02:06:25;99515.25;;;-1.90;73.08
26083;BME280;13848;49.018;12.078;2023-02-11T02:08:58;99514.03;;;-1.84;73.34
26083;BME280;13848;49.018;12.078;2023-02-11T02:11:29;99512.97;;;-1.82;72.77
26083;BME280;13848;49.018;12.078;2023-02-11T02:13:58;99511.38;;;-1.84;72.93
26083;BME280;13848;49.018;12.078;2023-02-11T02:16:29;99503.75;;;-1.89;73.73
26083;BME280;13848;49.018;12.078;2023-02-11T02:19:07;99505.72;;;-1.93;73.19
26083;BME280;13848;49.018;12.078;2023-02-11T02:21:54;99505.38;;;-2.01;73.52
26083;BME280;13848;49.018;12.078;2023-02-11T02:24:51;99509.53;;;-1.97;73.24
26083;BME280;13848;49.018;12.078;2023-02-11T02:27:28;99503.00;;;-2.05;73.60
26083;BME280;13848;49.018;12.078;2023-02-11T02:30:22;99511.03;;;-2.07;74.22
26083;BME280;13848;49.018;12.078;2023-02-11T02:33:05;99512.06;;;-2.09;73.44
26083;BME280;13848;49.018;12.078;2023-02-11T02:35:40;99517.63;;;-2.00;74.07
26083;BME280;13848;49.018;12.078;2023-02-11T02:38:12;99522.75;;;-1.97;74.01
26083;BME280;13848;49.018;12.078;2023-02-11T02:40:45;99515.56;;;-2.09;74.11
26083;BME280;13848;49.018;12.078;2023-02-11T02:43:14;99526.69;;;-2.04;74.00
26083;BME280;13848;49.018;12.078;2023-02-11T02:45:40;99526.81;;;-2.20;75.25
26083;BME280;13848;49.018;12.078;2023-02-11T02:48:23;99530.88;;;-2.14;74.94
26083;BME280;13848;49.018;12.078;2023-02-11T02:50:52;99513.91;;;-2.24;74.48
26083;BME280;13848;49.018;12.078;2023-02-11T02:53:31;99519.34;;;-2.13;74.79
26083;BME280;13848;49.018;12.078;2023-02-11T02:56:07;99517.66;;;-2.28;75.83
26083;BME280;13848;49.018;12.078;2023-02-11T02:59:11;99514.00;;;-2.40;75.79
26083;BME280;13848;49.018;12.078;2023-02-11T03:01:42;99514.47;;;-2.62;75.77
26083;BME280;13848;49.018;12.078;2023-02-11T03:04:20;99508.34;;;-2.62;76.81
26083;BME280;13848;49.018;12.078;2023-02-11T03:06:50;99513.53;;;-2.47;75.78
26083;BME280;13848;49.018;12.078;2023-02-11T03:09:21;99512.97;;;-2.37;75.35
26083;BME280;13848;49.018;12.078;2023-02-11T03:11:50;99511.00;;;-2.48;75.74
26083;BME280;13848;49.018;12.078;2023-02-11T03:14:17;99512.31;;;-2.41;76.35
26083;BME280;13848;49.018;12.078;2023-02-11T03:16:45;99508.41;;;-2.50;76.53
26083;BME280;13848;49.018;12.078;2023-02-11T03:19:18;99505.03;;;-2.80;77.56
26083;BME280;13848;49.018;12.078;2023-02-11T03:21:47;99491.81;;;-2.80;77.46
26083;BME280;13848;49.018;12.078;2023-02-11T03:24:17;99490.66;;;-3.05;78.24
26083;BME280;13848;49.018;12.078;2023-02-11T03:26:47;99480.06;;;-2.60;77.47
26083;BME280;13848;49.018;12.078;2023-02-11T03:29:16;99489.66;;;-2.45;76.99
26083;BME280;13848;49.018;12.078;2023-02-11T03:31:50;99493.16;;;-2.59;77.42
26083;BME280;13848;49.018;12.078;2023-02-11T03:34:26;99496.47;;;-2.41;76.75
26083;BME280;13848;49.018;12.078;2023-02-11T03:36:57;99493.41;;;-2.21;76.11
26083;BME280;13848;49.018;12.078;2023-02-11T03:39:28;99502.94;;;-2.18;76.17
26083;BME280;13848;49.018;12.078;2023-02-11T03:41:57;99501.03;;;-2.16;76.07
26083;BME280;13848;49.018;12.078;2023-02-11T03:44:28;99509.53;;;-2.11;75.44
26083;BME280;13848;49.018;12.078;2023-02-11T03:46:56;99489.25;;;-2.10;75.69
26083;BME280;13848;49.018;12.078;2023-02-11T03:49:24;99492.34;;;-2.04;75.56
26083;BME280;13848;49.018;12.078;2023-02-11T03:51:52;99483.56;;;-2.04;75.44
26083;BME280;13848;49.018;12.078;2023-02-11T03:54:23;99494.91;;;-2.02;75.31
26083;BME280;13848;49.018;12.078;2023-02-11T03:56:52;99494.19;;;-1.92;74.48
26083;BME280;13848;49.018;12.078;2023-02-11T03:59:18;99496.19;;;-1.95;74.79
26083;BME280;13848;49.018;12.078;2023-02-11T04:01:44;99492.53;;;-2.07;75.16
26083;BME280;13848;49.018;12.078;2023-02-11T04:04:10;99502.84;;;-2.02;75.38
26083;BME280;13848;49.018;12.078;2023-02-11T04:06:38;99506.78;;;-2.09;75.69
26083;BME280;13848;49.018;12.078;2023-02-11T04:09:04;99499.91;;;-2.12;75.07
26083;BME280;13848;49.018;12.078;2023-02-11T04:11:30;99498.97;;;-2.11;75.69
26083;BME280;13848;49.018;12.078;2023-02-11T04:13:56;99497.38;;;-2.28;75.62
26083;BME280;13848;49.018;12.078;2023-02-11T04:16:22;99499.00;;;-2.25;76.07
26083;BME280;13848;49.018;12.078;2023-02-11T04:18:48;99498.06;;;-2.24;75.44
26083;BME280;13848;49.018;12.078;2023-02-11T04:21:14;99489.91;;;-2.21;75.70
26083;BME280;13848;49.018;12.078;2023-02-11T04:23:41;99492.00;;;-2.26;75.70
26083;BME280;13848;49.018;12.078;2023-02-11T04:26:07;99488.88;;;-2.19;75.34
26083;BME280;13848;49.018;12.078;2023-02-11T04:28:33;99486.34;;;-2.34;75.71
26083;BME280;13848;49.018;12.078;2023-02-11T04:30:59;99473.16;;;-2.63;76.75
26083;BME280;13848;49.018;12.078;2023-02-11T04:33:25;99474.88;;;-2.48;76.58
26083;BME280;13848;49.018;12.078;2023-02-11T04:35:51;99477.13;;;-2.42;76.08
26083;BME280;13848;49.018;12.078;2023-02-11T04:38:17;99473.53;;;-2.41;75.32
26083;BME280;13848;49.018;12.078;2023-02-11T04:40:44;99472.59;;;-2.39;76.29
26083;BME280;13848;49.018;12.078;2023-02-11T04:43:10;99475.63;;;-2.31;75.87
26083;BME280;13848;49.018;12.078;2023-02-11T04:45:36;99467.66;;;-2.17;74.76
26083;BME280;13848;49.018;12.078;2023-02-11T04:48:02;99466.31;;;-2.10;74.93
26083;BME280;13848;49.018;12.078;2023-02-11T04:50:29;99466.13;;;-2.21;75.09
26083;BME280;13848;49.018;12.078;2023-02-11T04:52:55;99464.28;;;-2.19;75.25
26083;BME280;13848;49.018;12.078;2023-02-11T04:55:21;99466.41;;;-2.11;74.99
26083;BME280;13848;49.018;12.078;2023-02-11T04:57:48;99456.50;;;-2.08;74.73
26083;BME280;13848;49.018;12.078;2023-02-11T05:00:15;99461.41;;;-2.02;74.44
26083;BME280;13848;49.018;12.078;2023-02-11T05:02:41;99469.59;;;-2.06;74.61
26083;BME280;13848;49.018;12.078;2023-02-11T05:05:07;99457.28;;;-2.20;74.96
26083;BME280;13848;49.018;12.078;2023-02-11T05:07:33;99467.88;;;-2.20;75.17
26083;BME280;13848;49.018;12.078;2023-02-11T05:09:59;99475.75;;;-2.06;74.72
26083;BME280;13848;49.018;12.078;2023-02-11T05:12:25;99465.91;;;-2.04;75.18
26083;BME280;13848;49.018;12.078;2023-02-11T05:14:52;99461.56;;;-2.05;75.10
26083;BME280;13848;49.018;12.078;2023-02-11T05:17:18;99463.25;;;-2.04;75.10
26083;BME280;13848;49.018;12.078;2023-02-11T05:19:44;99469.59;;;-2.06;74.94
26083;BME280;13848;49.018;12.078;2023-02-11T05:22:10;99471.97;;;-2.02;74.45
26083;BME280;13848;49.018;12.078;2023-02-11T05:24:36;99471.88;;;-2.15;75.11
26083;BME280;13848;49.018;12.078;2023-02-11T05:27:02;99472.09;;;-2.18;75.11
26083;BME280;13848;49.018;12.078;2023-02-11T05:29:28;99470.91;;;-2.41;75.64
26083;BME280;13848;49.018;12.078;2023-02-11T05:31:57;99472.03;;;-2.30;75.63
26083;BME280;13848;49.018;12.078;2023-02-11T05:34:23;99458.78;;;-2.16;75.55
26083;BME280;13848;49.018;12.078;2023-02-11T05:36:49;99463.47;;;-2.07;75.13
26083;BME280;13848;49.018;12.078;2023-02-11T05:39:15;99454.09;;;-2.25;75.48
26083;BME280;13848;49.018;12.078;2023-02-11T05:41:41;99438.72;;;-2.33;75.90
26083;BME280;13848;49.018;12.078;2023-02-11T05:44:07;99442.91;;;-2.57;76.20
26083;BME280;13848;49.018;12.078;2023-02-11T05:46:33;99429.03;;;-2.47;76.85
26083;BME280;13848;49.018;12.078;2023-02-11T05:49:00;99427.59;;;-2.38;76.32
26083;BME280;13848;49.018;12.078;2023-02-11T05:51:26;99432.34;;;-2.43;76.73
26083;BME280;13848;49.018;12.078;2023-02-11T05:53:52;99431.22;;;-2.26;76.13
26083;BME280;13848;49.018;12.078;2023-02-11T05:56:18;99424.25;;;-2.27;76.20
26083;BME280;13848;49.018;12.078;2023-02-11T05:58:44;99428.75;;;-2.15;76.08
26083;BME280;13848;49.018;12.078;2023-02-11T06:01:10;99440.53;;;-2.06;75.31
26083;BME280;13848;49.018;12.078;2023-02-11T06:03:36;99436.22;;;-2.07;74.83
26083;BME280;13848;49.018;12.078;2023-02-11T06:06:04;99434.13;;;-2.02;75.24
26083;BME280;13848;49.018;12.078;2023-02-11T06:08:30;99430.09;;;-2.08;75.58
26083;BME280;13848;49.018;12.078;2023-02-11T06:10:56;99443.34;;;-1.95;74.90
26083;BME280;13848;49.018;12.078;2023-02-11T06:13:22;99438.47;;;-2.01;75.35
26083;BME280;13848;49.018;12.078;2023-02-11T06:15:55;99447.63;;;-2.07;74.84
26083;BME280;13848;49.018;12.078;2023-02-11T06:18:21;99435.59;;;-1.98;75.37
26083;BME280;13848;49.018;12.078;2023-02-11T06:20:46;99426.97;;;-1.88;75.34
26083;BME280;13848;49.018;12.078;2023-02-11T06:23:14;99414.81;;;-2.17;75.97
26083;BME280;13848;49.018;12.078;2023-02-11T06:25:40;99410.03;;;-2.39;76.69
26083;BME280;13848;49.018;12.078;2023-02-11T06:28:05;99418.34;;;-2.31;76.89
26083;BME280;13848;49.018;12.078;2023-02-11T06:30:31;99416.09;;;-2.10;76.47
26083;BME280;13848;49.018;12.078;2023-02-11T06:32:57;99420.09;;;-2.17;76.48
26083;BME280;13848;49.018;12.078;2023-02-11T06:35:23;99430.41;;;-2.00;76.04
26083;BME280;13848;49.018;12.078;2023-02-11T06:37:49;99428.88;;;-1.90;75.49
26083;BME280;13848;49.018;12.078;2023-02-11T06:40:16;99430.38;;;-1.85;75.00
26083;BME280;13848;49.018;12.078;2023-02-11T06:42:42;99426.72;;;-1.97;75.71
26083;BME280;13848;49.018;12.078;2023-02-11T06:45:09;99432.00;;;-1.97;75.57
26083;BME280;13848;49.018;12.078;2023-02-11T06:47:35;99436.66;;;-2.01;75.55
26083;BME280;13848;49.018;12.078;2023-02-11T06:50:01;99423.78;;;-1.93;75.97
26083;BME280;13848;49.018;12.078;2023-02-11T06:52:27;99431.31;;;-1.87;75.26
26083;BME280;13848;49.018;12.078;2023-02-11T06:54:53;99445.84;;;-1.79;75.53
26083;BME280;13848;49.018;12.078;2023-02-11T06:57:20;99451.47;;;-1.71;75.55
26083;BME280;13848;49.018;12.078;2023-02-11T06:59:46;99450.75;;;-1.61;74.56
26083;BME280;13848;49.018;12.078;2023-02-11T07:02:12;99445.06;;;-1.81;75.55
26083;BME280;13848;49.018;12.078;2023-02-11T07:04:38;99429.75;;;-1.76;75.11
26083;BME280;13848;49.018;12.078;2023-02-11T07:07:04;99433.94;;;-1.87;75.36
26083;BME280;13848;49.018;12.078;2023-02-11T07:09:30;99430.09;;;-2.08;75.73
26083;BME280;13848;49.018;12.078;2023-02-11T07:11:56;99431.94;;;-2.10;76.30
26083;BME280;13848;49.018;12.078;2023-02-11T07:14:23;99427.34;;;-2.21;76.90
26083;BME280;13848;49.018;12.078;2023-02-11T07:16:49;99411.88;;;-2.54;78.20
26083;BME280;13848;49.018;12.078;2023-02-11T07:19:15;99412.63;;;-2.37;77.91
26083;BME280;13848;49.018;12.078;2023-02-11T07:21:41;99419.81;;;-2.27;77.51
26083;BME280;13848;49.018;12.078;2023-02-11T07:24:07;99412.31;;;-2.06;77.18
26083;BME280;13848;49.018;12.078;2023-02-11T07:26:34;99418.19;;;-1.88;76.55
26083;BME280;13848;49.018;12.078;2023-02-11T07:29:00;99424.06;;;-1.70;75.74
26083;BME280;13848;49.018;12.078;2023-02-11T07:31:28;99414.59;;;-1.60;75.86
26083;BME280;13848;49.018;12.078;2023-02-11T07:33:57;99423.28;;;-1.45;75.34
26083;BME280;13848;49.018;12.078;2023-02-11T07:36:23;99416.72;;;-1.40;75.59
26083;BME280;13848;49.018;12.078;2023-02-11T07:38:49;99425.97;;;-1.32;75.27
26083;BME280;13848;49.018;12.078;2023-02-11T07:41:17;99423.09;;;-1.29;74.88
26083;BME280;13848;49.018;12.078;2023-02-11T07:43:43;99431.69;;;-1.13;75.11
26083;BME280;13848;49.018;12.078;2023-02-11T07:46:13;99433.47;;;-1.01;74.48
26083;BME280;13848;49.018;12.078;2023-02-11T07:48:40;99438.34;;;-0.82;74.29
26083;BME280;13848;49.018;12.078;2023-02-11T07:51:07;99435.28;;;-0.89;73.95
26083;BME280;13848;49.018;12.078;2023-02-11T07:53:34;99440.38;;;-0.73;74.56
26083;BME280;13848;49.018;12.078;2023-02-11T07:56:01;99442.16;;;-0.73;73.70
26083;BME280;13848;49.018;12.078;2023-02-11T07:58:27;99445.34;;;-0.68;74.47
26083;BME280;13848;49.018;12.078;2023-02-11T08:00:54;99441.50;;;-0.64;73.72
26083;BME280;13848;49.018;12.078;2023-02-11T08:03:19;99441.19;;;-0.60;73.73
26083;BME280;13848;49.018;12.078;2023-02-11T08:05:47;99443.63;;;-0.57;73.14
26083;BME280;13848;49.018;12.078;2023-02-11T08:08:12;99435.50;;;-0.79;74.28
26083;BME280;13848;49.018;12.078;2023-02-11T08:10:38;99441.31;;;-0.74;74.06
26083;BME280;13848;49.018;12.078;2023-02-11T08:13:04;99440.78;;;-0.66;74.00
26083;BME280;13848;49.018;12.078;2023-02-11T08:15:30;99439.19;;;-0.56;73.88
26083;BME280;13848;49.018;12.078;2023-02-11T08:17:56;99441.53;;;-0.51;73.26
26083;BME280;13848;49.018;12.078;2023-02-11T08:20:22;99440.09;;;-0.32;74.14
26083;BME280;13848;49.018;12.078;2023-02-11T08:22:49;99432.72;;;-0.15;73.70
26083;BME280;13848;49.018;12.078;2023-02-11T08:25:15;99431.50;;;-0.22;72.68
26083;BME280;13848;49.018;12.078;2023-02-11T08:27:41;99432.09;;;-0.19;73.94
26083;BME280;13848;49.018;12.078;2023-02-11T08:30:08;99425.44;;;0.12;72.98
26083;BME280;13848;49.018;12.078;2023-02-11T08:32:35;99430.94;;;0.09;72.41
26083;BME280;13848;49.018;12.078;2023-02-11T08:35:00;99434.66;;;0.31;71.84
26083;BME280;13848;49.018;12.078;2023-02-11T08:37:27;99433.44;;;0.23;72.02
26083;BME280;13848;49.018;12.078;2023-02-11T08:39:54;99438.56;;;0.14;71.93
26083;BME280;13848;49.018;12.078;2023-02-11T08:42:20;99451.63;;;0.28;71.95
26083;BME280;13848;49.018;12.078;2023-02-11T08:44:46;99454.91;;;0.56;71.14
26083;BME280;13848;49.018;12.078;2023-02-11T08:47:11;99466.56;;;0.42;70.36
26083;BME280;13848;49.018;12.078;2023-02-11T08:49:37;99472.47;;;0.80;71.70
26083;BME280;13848;49.018;12.078;2023-02-11T08:52:03;99466.66;;;1.89;71.64
26083;BME280;13848;49.018;12.078;2023-02-11T08:54:30;99469.88;;;2.58;68.22
26083;BME280;13848;49.018;12.078;2023-02-11T08:56:57;99466.94;;;2.93;66.79
26083;BME280;13848;49.018;12.078;2023-02-11T08:59:23;99476.88;;;2.91;64.24
26083;BME280;13848;49.018;12.078;2023-02-11T09:01:49;99462.53;;;2.51;64.90
26083;BME280;13848;49.018;12.078;2023-02-11T09:04:16;99454.72;;;1.61;66.76
26083;BME280;13848;49.018;12.078;2023-02-11T09:06:42;99465.09;;;2.09;66.14
26083;BME280;13848;49.018;12.078;2023-02-11T09:09:09;99458.84;;;2.31;66.71
26083;BME280;13848;49.018;12.078;2023-02-11T09:11:35;99455.41;;;2.51;65.71
26083;BME280;13848;49.018;12.078;2023-02-11T09:14:03;99455.06;;;2.45;65.48
26083;BME280;13848;49.018;12.078;2023-02-11T09:16:31;99454.50;;;1.75;66.83
26083;BME280;13848;49.018;12.078;2023-02-11T09:18:58;99455.41;;;1.97;66.21
26083;BME280;13848;49.018;12.078;2023-02-11T09:21:24;99467.88;;;1.85;66.27
26083;BME280;13848;49.018;12.078;2023-02-11T09:23:50;99454.97;;;1.92;66.40
26083;BME280;13848;49.018;12.078;2023-02-11T09:26:18;99447.00;;;1.80;66.39
26083;BME280;13848;49.018;12.078;2023-02-11T09:28:44;99438.75;;;1.83;66.67
26083;BME280;13848;49.018;12.078;2023-02-11T09:31:14;99453.72;;;1.96;66.33
26083;BME280;13848;49.018;12.078;2023-02-11T09:33:41;99450.69;;;2.00;66.26
26083;BME280;13848;49.018;12.078;2023-02-11T09:36:08;99450.97;;;1.97;66.54
26083;BME280;13848;49.018;12.078;2023-02-11T09:38:34;99444.31;;;1.92;67.19
26083;BME280;13848;49.018;12.078;2023-02-11T09:40:59;99441.59;;;2.03;66.45
26083;BME280;13848;49.018;12.078;2023-02-11T09:43:30;99448.69;;;1.81;66.89
26083;BME280;13848;49.018;12.078;2023-02-11T09:45:57;99437.56;;;1.43;67.47
26083;BME280;13848;49.018;12.078;2023-02-11T09:48:26;99438.78;;;1.39;67.78
26083;BME280;13848;49.018;12.078;2023-02-11T09:50:54;99438.41;;;1.43;68.15
26083;BME280;13848;49.018;12.078;2023-02-11T09:53:23;99438.53;;;1.53;68.21
26083;BME280;13848;49.018;12.078;2023-02-11T09:55:52;99442.53;;;1.36;68.51
26083;BME280;13848;49.018;12.078;2023-02-11T09:58:25;99454.34;;;1.32;68.32
26083;BME280;13848;49.018;12.078;2023-02-11T10:00:58;99445.81;;;1.40;68.51
26083;BME280;13848;49.018;12.078;2023-02-11T10:03:41;99448.31;;;1.19;68.17
26083;BME280;13848;49.018;12.078;2023-02-11T10:06:23;99446.16;;;1.24;69.14
26083;BME280;13848;49.018;12.078;2023-02-11T10:09:00;99445.31;;;1.23;68.88
26083;BME280;13848;49.018;12.078;2023-02-11T10:11:34;99447.00;;;1.24;68.87
26083;BME280;13848;49.018;12.078;2023-02-11T10:14:15;99453.16;;;1.36;68.44
26083;BME280;13848;49.018;12.078;2023-02-11T10:16:56;99460.78;;;1.52;68.26
26083;BME280;13848;49.018;12.078;2023-02-11T10:19:40;99451.34;;;1.59;67.54
26083;BME280;13848;49.018;12.078;2023-02-11T10:22:12;99456.66;;;1.59;68.05
26083;BME280;13848;49.018;12.078;2023-02-11T10:24:41;99442.88;;;1.54;67.98
26083;BME280;13848;49.018;12.078;2023-02-11T10:27:16;99443.16;;;1.40;68.64
26083;BME280;13848;49.018;12.078;2023-02-11T10:29:47;99436.13;;;1.50;68.54
26083;BME280;13848;49.018;12.078;2023-02-11T10:32:23;99432.88;;;1.69;68.54
26083;BME280;13848;49.018;12.078;2023-02-11T10:34:54;99436.09;;;1.72;68.18
26083;BME280;13848;49.018;12.078;2023-02-11T10:37:21;99434.19;;;1.74;67.88
26083;BME280;13848;49.018;12.078;2023-02-11T10:39:47;99424.75;;;1.81;68.38
26083;BME280;13848;49.018;12.078;2023-02-11T10:42:13;99429.31;;;1.91;67.96
26083;BME280;13848;49.018;12.078;2023-02-11T10:44:44;99415.28;;;2.00;68.03
26083;BME280;13848;49.018;12.078;2023-02-11T10:47:19;99410.81;;;1.89;67.41
26083;BME280;13848;49.018;12.078;2023-02-11T10:49:47;99408.78;;;1.81;67.97
26083;BME280;13848;49.018;12.078;2023-02-11T10:52:18;99400.72;;;1.60;68.73
26083;BME280;13848;49.018;12.078;2023-02-11T10:54:55;99401.47;;;2.06;68.85
26083;BME280;13848;49.018;12.078;2023-02-11T10:57:25;99414.81;;;2.38;68.56
26083;BME280;13848;49.018;12.078;2023-02-11T10:59:58;99411.84;;;2.73;67.03
26083;BME280;13848;49.018;12.078;2023-02-11T11:02:28;99410.72;;;2.76;66.52
26083;BME280;13848;49.018;12.078;2023-02-11T11:04:55;99397.09;;;2.69;66.37
26083;BME280;13848;49.018;12.078;2023-02-11T11:07:26;99400.19;;;2.53;66.10
26083;BME280;13848;49.018;12.078;2023-02-11T11:09:54;99391.81;;;2.58;65.42
26083;BME280;13848;49.018;12.078;2023-02-11T11:12:31;99390.66;;;2.72;65.39
26083;BME280;13848;49.018;12.078;2023-02-11T11:14:58;99400.78;;;2.57;64.76
26083;BME280;13848;49.018;12.078;2023-02-11T11:17:25;99385.75;;;2.67;65.15
26083;BME280;13848;49.018;12.078;2023-02-11T11:19:50;99390.78;;;2.70;65.46
26083;BME280;13848;49.018;12.078;2023-02-11T11:22:20;99380.66;;;2.64;65.09
26083;BME280;13848;49.018;12.078;2023-02-11T11:24:48;99383.69;;;2.59;64.33
26083;BME280;13848;49.018;12.078;2023-02-11T11:27:17;99387.09;;;2.61;64.49
26083;BME280;13848;49.018;12.078;2023-02-11T11:29:46;99396.72;;;2.74;65.13
26083;BME280;13848;49.018;12.078;2023-02-11T11:32:17;99397.09;;;2.90;65.18
26083;BME280;13848;49.018;12.078;2023-02-11T11:34:47;99396.97;;;2.91;65.65
26083;BME280;13848;49.018;12.078;2023-02-11T11:37:19;99394.75;;;2.97;65.49
26083;BME280;13848;49.018;12.078;2023-02-11T11:39:56;99387.28;;;2.90;65.14
26083;BME280;13848;49.018;12.078;2023-02-11T11:42:26;99383.13;;;2.77;65.52
26083;BME280;13848;49.018;12.078;2023-02-11T11:44:57;99383.63;;;2.71;65.62
26083;BME280;13848;49.018;12.078;2023-02-11T11:47:27;99375.50;;;2.72;66.02
26083;BME280;13848;49.018;12.078;2023-02-11T11:50:08;99375.34;;;2.64;65.91
26083;BME280;13848;49.018;12.078;2023-02-11T11:52:38;99372.94;;;2.61;66.37
26083;BME280;13848;49.018;12.078;2023-02-11T11:55:14;99378.53;;;2.79;66.13
26083;BME280;13848;49.018;12.078;2023-02-11T11:57:41;99368.88;;;2.87;65.85
26083;BME280;13848;49.018;12.078;2023-02-11T12:00:14;99367.28;;;2.75;65.91
26083;BME280;13848;49.018;12.078;2023-02-11T12:03:01;99355.84;;;2.84;65.80
26083;BME280;13848;49.018;12.078;2023-02-11T12:05:35;99355.66;;;3.07;66.45
26083;BME280;13848;49.018;12.078;2023-02-11T12:08:10;99358.53;;;3.25;65.73
26083;BME280;13848;49.018;12.078;2023-02-11T12:10:53;99366.72;;;3.33;65.70
26083;BME280;13848;49.018;12.078;2023-02-11T12:13:32;99358.28;;;3.28;65.25
26083;BME280;13848;49.018;12.078;2023-02-11T12:16:10;99348.47;;;3.28;65.25
26083;BME280;13848;49.018;12.078;2023-02-11T12:18:52;99351.84;;;3.30;65.27
26083;BME280;13848;49.018;12.078;2023-02-11T12:21:33;99345.38;;;3.73;64.58
26083;BME280;13848;49.018;12.078;2023-02-11T12:24:16;99352.53;;;3.72;64.30
26083;BME280;13848;49.018;12.078;2023-02-11T12:26:55;99362.22;;;3.73;63.90
26083;BME280;13848;49.018;12.078;2023-02-11T12:29:30;99365.16;;;3.61;64.19
26083;BME280;13848;49.018;12.078;2023-02-11T12:32:13;99343.16;;;3.97;64.71
26083;BME280;13848;49.018;12.078;2023-02-11T12:34:55;99331.47;;;4.76;60.82
26083;BME280;13848;49.018;12.078;2023-02-11T12:37:36;99330.81;;;6.11;61.15
26083;BME280;13848;49.018;12.078;2023-02-11T12:40:14;99324.59;;;5.93;60.13
26083;BME280;13848;49.018;12.078;2023-02-11T12:43:01;99318.66;;;5.17;60.01
26083;BME280;13848;49.018;12.078;2023-02-11T12:45:40;99315.72;;;4.63;60.08
26083;BME280;13848;49.018;12.078;2023-02-11T12:48:20;99312.84;;;4.94;60.45
26083;BME280;13848;49.018;12.078;2023-02-11T12:50:55;99311.28;;;5.01;60.10
26083;BME280;13848;49.018;12.078;2023-02-11T12:53:35;99310.84;;;5.05;59.88
26083;BME280;13848;49.018;12.078;2023-02-11T12:56:15;99319.06;;;4.75;60.10
26083;BME280;13848;49.018;12.078;2023-02-11T12:58:46;99313.63;;;4.57;61.03
26083;BME280;13848;49.018;12.078;2023-02-11T13:01:17;99309.03;;;4.30;60.83
26083;BME280;13848;49.018;12.078;2023-02-11T13:03:47;99298.38;;;4.20;61.45